Time;durP1;ratioP1;P1;durP2;ratioP2;P2;SDS_P1;SDS_P2;PMS_P1;PMS_P2;Temp;Humidity;BMP_temperature;BMP_pressure;BME280_temperature;BME280_humidity;BME280_pressure;Samples;Min_cycle;Max_cycle;Signal;HPM_P1;HPM_P2
2024/04/24 04:01:42;;;;;;;1.93;1.67;;;3.60;97.30;;;;;;5828389;21;20545;-87
2024/04/24 04:04:08;;;;;;;2.07;1.93;;;3.60;97.30;;;;;;5313303;26;20462;-86
2024/04/24 04:06:33;;;;;;;2.63;2.27;;;3.60;97.30;;;;;;5343140;26;20230;-87
2024/04/24 04:08:59;;;;;;;2.30;1.40;;;3.60;97.30;;;;;;5337925;26;20238;-86
2024/04/24 04:11:24;;;;;;;2.13;1.83;;;3.60;97.30;;;;;;5324392;26;20610;-87
2024/04/24 04:13:50;;;;;;;1.63;1.53;;;3.60;97.30;;;;;;5340646;26;20286;-87
2024/04/24 04:16:15;;;;;;;2.53;1.67;;;3.60;97.30;;;;;;5339271;26;20235;-86
2024/04/24 04:18:41;;;;;;;1.10;1.00;;;3.60;97.30;;;;;;5309158;26;20235;-86
2024/04/24 04:21:06;;;;;;;1.77;1.60;;;3.60;97.30;;;;;;5343343;26;20235;-86
2024/04/24 04:23:32;;;;;;;2.03;1.90;;;3.60;97.30;;;;;;5315470;26;20729;-88
2024/04/24 04:25:57;;;;;;;1.47;1.37;;;3.60;97.30;;;;;;5342125;26;20227;-87
2024/04/24 04:28:23;;;;;;;3.10;2.90;;;3.60;97.30;;;;;;5337901;26;20274;-87
2024/04/24 04:30:51;;;;;;;1.57;1.40;;;3.60;97.30;;;;;;5322003;26;20344;-87
2024/04/24 04:33:16;;;;;;;2.13;1.57;;;3.70;97.30;;;;;;5315122;26;20235;-87
2024/04/24 04:35:41;;;;;;;1.87;1.77;;;3.70;97.30;;;;;;5315107;26;20563;-86
2024/04/24 04:38:07;;;;;;;1.17;1.10;;;3.80;97.30;;;;;;5338531;26;20230;-87
2024/04/24 04:40:32;;;;;;;1.77;1.67;;;3.90;97.30;;;;;;5308549;26;20235;-87
2024/04/24 04:42:58;;;;;;;1.33;1.23;;;3.90;97.30;;;;;;5338833;26;20227;-87
2024/04/24 04:45:23;;;;;;;1.53;1.23;;;4.00;97.30;;;;;;5309435;26;20264;-87
2024/04/24 04:47:49;;;;;;;1.73;1.63;;;4.00;97.30;;;;;;5338799;26;20223;-87
2024/04/24 04:50:14;;;;;;;4.50;2.53;;;4.00;97.30;;;;;;5322607;26;20288;-88
2024/04/24 04:52:40;;;;;;;2.00;1.90;;;4.10;97.30;;;;;;5340160;26;20275;-87
2024/04/24 04:55:05;;;;;;;1.60;1.50;;;4.10;97.30;;;;;;5340129;26;20269;-86
2024/04/24 04:57:31;;;;;;;1.70;1.60;;;4.20;97.30;;;;;;5311249;26;20262;-87
2024/04/24 04:59:57;;;;;;;1.20;1.10;;;4.20;97.30;;;;;;5344937;26;20227;-87
2024/04/24 05:02:22;;;;;;;7.23;2.73;;;4.30;97.30;;;;;;5315428;26;20273;-87
2024/04/24 05:04:48;;;;;;;2.07;1.93;;;4.30;97.30;;;;;;5346545;26;20267;-87
2024/04/24 05:07:13;;;;;;;3.40;2.50;;;4.40;97.30;;;;;;5344813;26;20227;-87
2024/04/24 05:09:39;;;;;;;2.90;2.70;;;4.40;97.30;;;;;;5315163;26;20231;-87
2024/04/24 05:12:06;;;;;;;2.83;2.53;;;4.50;97.30;;;;;;5358332;26;20269;-87
2024/04/24 05:14:34;;;;;;;3.73;2.73;;;4.60;97.30;;;;;;5346287;26;20227;-88
2024/04/24 05:17:02;;;;;;;2.87;2.47;;;4.70;97.30;;;;;;5344616;26;20476;-87
2024/04/24 05:19:33;;;;;;;13.43;3.03;;;4.70;97.30;;;;;;5325029;26;21010;-88
2024/04/24 05:22:25;;;;;;;2.80;2.33;;;4.70;97.30;;;;;;5327470;26;20473;-88
2024/04/24 05:24:53;;;;;;;1.57;1.47;;;4.80;97.30;;;;;;5302625;26;20457;-88
2024/04/24 05:30:11;;;;;;;1.60;1.50;;;4.90;97.30;;;;;;5332305;26;20561;-88
2024/04/24 05:32:36;;;;;;;7.03;3.43;;;4.90;97.30;;;;;;5323259;26;20533;-87
2024/04/24 05:35:02;;;;;;;2.03;1.90;;;4.90;97.30;;;;;;5334306;26;20239;-87
2024/04/24 05:37:27;;;;;;;1.93;1.83;;;5.00;97.30;;;;;;5357942;26;20223;-87
2024/04/24 05:39:53;;;;;;;3.40;2.13;;;5.00;97.30;;;;;;5348562;26;20231;-86
2024/04/24 05:42:18;;;;;;;2.87;2.00;;;5.00;97.30;;;;;;5332454;26;20243;-87
2024/04/24 05:44:44;;;;;;;2.60;2.40;;;5.00;97.30;;;;;;5317899;26;20716;-87
2024/04/24 05:47:09;;;;;;;1.53;1.43;;;5.00;97.30;;;;;;5335232;26;20352;-87
2024/04/24 05:49:35;;;;;;;2.73;2.53;;;5.00;97.30;;;;;;5349039;26;20281;-86
2024/04/24 05:52:00;;;;;;;1.57;1.47;;;5.00;97.30;;;;;;5317005;26;20266;-87
2024/04/24 05:54:26;;;;;;;1.73;1.20;;;5.00;97.30;;;;;;5318254;26;20293;-87
2024/04/24 05:56:51;;;;;;;3.20;2.30;;;5.10;97.30;;;;;;5315130;26;20743;-87
2024/04/24 05:59:16;;;;;;;2.50;2.40;;;5.10;97.30;;;;;;5330267;26;20241;-87
2024/04/24 06:01:42;;;;;;;1.50;1.40;;;5.10;97.30;;;;;;5330403;21;20263;-63
2024/04/24 06:04:07;;;;;;;7.17;3.97;;;5.20;97.30;;;;;;5304391;27;20587;-63
2024/04/24 06:06:33;;;;;;;2.80;2.60;;;5.20;97.30;;;;;;5294041;27;20279;-63
2024/04/24 06:08:58;;;;;;;2.80;2.60;;;5.30;97.30;;;;;;5298948;27;20334;-62
2024/04/24 06:11:24;;;;;;;1.60;1.50;;;5.30;97.30;;;;;;5262390;27;20307;-63
2024/04/24 06:13:49;;;;;;;2.23;2.07;;;5.40;97.30;;;;;;5323255;26;20713;-63
2024/04/24 06:16:15;;;;;;;1.70;1.60;;;5.40;97.30;;;;;;5304925;26;20720;-63
2024/04/24 06:18:40;;;;;;;4.00;3.83;;;5.40;97.30;;;;;;5304386;26;20279;-63
2024/04/24 06:21:06;;;;;;;1.70;1.60;;;5.50;97.30;;;;;;5274350;26;20236;-64
2024/04/24 06:23:31;;;;;;;2.23;2.03;;;5.50;97.30;;;;;;5304307;26;20728;-62
2024/04/24 06:25:57;;;;;;;1.43;1.33;;;5.60;97.30;;;;;;5285840;26;20427;-63
2024/04/24 06:28:22;;;;;;;3.23;2.60;;;5.60;97.30;;;;;;5310707;26;20279;-63
2024/04/24 06:30:48;;;;;;;1.50;1.40;;;5.60;97.30;;;;;;5274700;27;20281;-63
2024/04/24 06:33:13;;;;;;;2.83;2.63;;;5.60;97.30;;;;;;5274948;27;20656;-64
2024/04/24 06:35:39;;;;;;;1.53;1.50;;;5.70;97.30;;;;;;5283983;27;20283;-62
2024/04/24 06:38:07;;;;;;;2.10;1.57;;;5.80;97.30;;;;;;5274611;26;20598;-63
2024/04/24 06:40:33;;;;;;;2.30;1.67;;;5.80;97.20;;;;;;5274584;27;20303;-63
2024/04/24 06:42:58;;;;;;;2.10;1.57;;;5.80;96.90;;;;;;5275961;26;20842;-64
2024/04/24 06:45:24;;;;;;;3.53;2.63;;;5.90;96.60;;;;;;5306262;26;20651;-64
2024/04/24 06:47:49;;;;;;;2.70;2.07;;;5.90;96.60;;;;;;5272920;27;20244;-63
2024/04/24 06:50:15;;;;;;;2.23;1.87;;;5.90;95.90;;;;;;5306186;26;20232;-63
2024/04/24 06:52:40;;;;;;;2.80;2.43;;;5.90;96.10;;;;;;5305373;26;20243;-63
2024/04/24 06:55:06;;;;;;;2.20;2.07;;;5.90;95.80;;;;;;5305425;26;20240;-63
2024/04/24 06:57:31;;;;;;;2.57;2.03;;;6.00;95.80;;;;;;5305399;26;20236;-63
2024/04/24 06:59:57;;;;;;;1.90;1.80;;;6.00;95.50;;;;;;5303295;26;20806;-63
2024/04/24 07:02:22;;;;;;;1.30;1.20;;;6.00;95.80;;;;;;5272538;27;20224;-63
2024/04/24 07:04:48;;;;;;;1.97;1.87;;;6.10;95.70;;;;;;5304814;26;20340;-63
2024/04/24 07:07:13;;;;;;;4.70;1.90;;;6.10;95.70;;;;;;5307262;26;20234;-63
2024/04/24 07:09:39;;;;;;;2.23;2.03;;;6.20;96.00;;;;;;5308287;26;20770;-63
2024/04/24 07:12:04;;;;;;;1.63;1.53;;;6.20;95.70;;;;;;5305207;26;20228;-62
2024/04/24 07:14:30;;;;;;;2.30;1.10;;;6.20;95.50;;;;;;5305637;26;20275;-63
2024/04/24 07:16:55;;;;;;;1.67;1.57;;;6.20;95.10;;;;;;5305269;26;20496;-62
2024/04/24 07:19:21;;;;;;;4.93;2.00;;;6.20;95.30;;;;;;5305357;26;20274;-63
2024/04/24 07:21:46;;;;;;;2.70;1.93;;;6.20;95.50;;;;;;5304976;26;20691;-62
2024/04/24 07:24:12;;;;;;;3.50;2.37;;;6.20;96.10;;;;;;5304774;26;20232;-62
2024/04/24 07:26:39;;;;;;;4.60;2.87;;;6.30;96.20;;;;;;5304981;26;20714;-64
2024/04/24 07:29:05;;;;;;;3.60;3.07;;;6.30;96.70;;;;;;5305129;26;20220;-63
2024/04/24 07:31:31;;;;;;;2.57;2.37;;;6.30;96.60;;;;;;5305819;26;20455;-63
2024/04/24 07:33:56;;;;;;;4.33;2.40;;;6.40;97.20;;;;;;5309282;26;20232;-64
2024/04/24 07:36:22;;;;;;;3.83;2.53;;;6.50;97.30;;;;;;5272440;27;20236;-64
2024/04/24 07:38:48;;;;;;;2.43;2.23;;;6.50;97.30;;;;;;5273890;27;20235;-63
2024/04/24 07:41:15;;;;;;;2.40;2.20;;;6.50;97.20;;;;;;5304514;26;20278;-63
2024/04/24 07:43:40;;;;;;;5.00;4.00;;;6.70;97.30;;;;;;5310354;26;20507;-63
2024/04/24 07:46:06;;;;;;;7.00;4.13;;;6.70;97.10;;;;;;5305160;26;20471;-63
2024/04/24 07:48:31;;;;;;;4.37;2.83;;;6.70;96.90;;;;;;5305054;26;20236;-63
2024/04/24 07:50:57;;;;;;;6.00;4.60;;;6.70;97.20;;;;;;5304955;26;20279;-63
2024/04/24 07:53:22;;;;;;;2.90;2.33;;;6.80;97.30;;;;;;5304766;26;20292;-63
2024/04/24 07:55:48;;;;;;;3.07;2.87;;;6.80;97.20;;;;;;5304737;26;20220;-63
2024/04/24 07:58:13;;;;;;;3.57;2.87;;;6.80;97.00;;;;;;5304188;26;20739;-63
2024/04/24 08:00:39;;;;;;;4.03;2.67;;;6.90;97.30;;;;;;5312087;26;20243;-63
2024/04/24 08:03:04;;;;;;;4.67;4.40;;;7.10;97.30;;;;;;5304387;26;20239;-66
2024/04/24 08:05:30;;;;;;;2.50;2.37;;;7.00;97.30;;;;;;5305201;26;20236;-63
2024/04/24 08:07:56;;;;;;;4.70;2.73;;;6.80;97.30;;;;;;5268590;26;20767;-63
2024/04/24 08:10:21;;;;;;;6.57;4.07;;;6.70;97.30;;;;;;5311828;26;20273;-64
2024/04/24 08:12:47;;;;;;;6.13;2.77;;;6.70;97.30;;;;;;5304169;26;20227;-63
2024/04/24 08:15:12;;;;;;;1.93;1.40;;;6.70;97.30;;;;;;5274639;26;20244;-64
2024/04/24 08:17:38;;;;;;;3.37;3.20;;;6.70;97.30;;;;;;5311815;26;20228;-64
2024/04/24 08:20:04;;;;;;;6.37;3.87;;;6.70;97.30;;;;;;5304430;26;20767;-63
2024/04/24 08:22:29;;;;;;;3.87;3.50;;;6.80;97.30;;;;;;5304223;26;20710;-64
2024/04/24 08:24:55;;;;;;;3.50;2.77;;;6.80;97.30;;;;;;5270246;27;20248;-64
2024/04/24 08:27:20;;;;;;;4.17;1.43;;;6.90;97.30;;;;;;5310393;26;20345;-63
2024/04/24 08:29:46;;;;;;;2.07;1.93;;;7.00;97.30;;;;;;5299749;26;20248;-65
2024/04/24 08:32:12;;;;;;;5.90;2.03;;;7.10;97.30;;;;;;5318078;26;20239;-63
2024/04/24 08:34:38;;;;;;;1.93;1.83;;;7.30;97.30;;;;;;5305324;26;20296;-63
2024/04/24 08:37:04;;;;;;;2.63;2.43;;;7.50;97.30;;;;;;5307913;26;20994;-63
2024/04/24 08:39:29;;;;;;;2.23;1.67;;;7.50;97.30;;;;;;5307461;26;20251;-64
2024/04/24 08:41:56;;;;;;;7.87;2.90;;;7.70;97.30;;;;;;5307776;26;20232;-62
2024/04/24 08:44:26;;;;;;;6.57;2.43;;;7.80;97.30;;;;;;5307450;26;20328;-64
2024/04/24 08:46:52;;;;;;;3.57;2.33;;;8.00;97.20;;;;;;5277526;27;20470;-64
2024/04/24 08:49:20;;;;;;;2.37;1.50;;;8.00;96.80;;;;;;5307283;26;20636;-65
2024/04/24 08:51:46;;;;;;;8.33;3.23;;;8.00;97.30;;;;;;5319116;26;20600;-64
2024/04/24 08:54:18;;;;;;;4.00;3.63;;;8.00;96.80;;;;;;5324449;26;20903;-66
2024/04/24 08:56:46;;;;;;;3.13;2.63;;;8.00;96.90;;;;;;5308358;26;20828;-63
2024/04/24 08:59:21;;;;;;;3.23;3.03;;;7.90;96.50;;;;;;5306640;26;20474;-62
2024/04/24 09:02:02;;;;;;;3.23;1.83;;;7.80;96.50;;;;;;5307055;26;20616;-63
2024/04/24 09:04:30;;;;;;;3.97;2.30;;;7.80;97.00;;;;;;5290917;26;20479;-64
2024/04/24 09:06:56;;;;;;;3.20;2.10;;;7.70;97.00;;;;;;5308622;26;20523;-66
2024/04/24 09:09:23;;;;;;;3.27;2.17;;;7.50;97.10;;;;;;5309087;26;20823;-63
2024/04/24 09:11:51;;;;;;;3.70;2.50;;;7.60;97.30;;;;;;5308458;26;20232;-63
2024/04/24 09:14:18;;;;;;;6.80;2.80;;;7.70;96.00;;;;;;5282530;26;21091;-63
2024/04/24 09:16:44;;;;;;;3.53;3.33;;;7.70;95.80;;;;;;5311252;26;20467;-63
2024/04/24 09:19:09;;;;;;;4.20;2.87;;;7.70;96.40;;;;;;5308884;26;20499;-63
2024/04/24 09:21:35;;;;;;;3.83;2.13;;;7.80;96.20;;;;;;5308446;26;20520;-62
2024/04/24 09:24:00;;;;;;;2.63;2.43;;;7.90;95.90;;;;;;5307046;26;20345;-63
2024/04/24 09:26:26;;;;;;;3.90;2.93;;;8.00;95.90;;;;;;5307682;26;20304;-63
2024/04/24 09:28:52;;;;;;;1.20;1.10;;;8.00;95.90;;;;;;5269124;27;20283;-64
2024/04/24 09:31:18;;;;;;;5.07;2.63;;;8.20;96.40;;;;;;5246895;26;21091;-63
2024/04/24 09:33:44;;;;;;;1.60;1.50;;;8.30;95.50;;;;;;5306517;26;20240;-64
2024/04/24 09:36:10;;;;;;;6.33;4.07;;;8.30;94.70;;;;;;5306971;26;20329;-64
2024/04/24 09:38:36;;;;;;;2.13;1.97;;;8.40;95.80;;;;;;5306526;26;20522;-64
2024/04/24 09:41:02;;;;;;;2.53;2.10;;;8.60;94.90;;;;;;5303571;26;20487;-64
2024/04/24 09:43:29;;;;;;;1.40;1.30;;;8.60;94.00;;;;;;5270695;27;20240;-64
2024/04/24 09:45:55;;;;;;;0.80;0.80;;;8.60;93.20;;;;;;5304716;26;20478;-63
2024/04/24 09:48:22;;;;;;;1.70;1.27;;;8.60;93.00;;;;;;5304451;26;20451;-63
2024/04/24 09:50:52;;;;;;;1.90;1.10;;;8.50;92.90;;;;;;5306470;26;20874;-64
2024/04/24 09:53:18;;;;;;;1.20;1.10;;;8.40;93.20;;;;;;5305968;26;20511;-63
2024/04/24 09:56:00;;;;;;;1.90;1.80;;;8.50;93.80;;;;;;5276297;27;20475;-64
2024/04/24 09:58:27;;;;;;;1.37;1.30;;;8.40;93.40;;;;;;5311853;26;20453;-65
2024/04/24 10:00:53;;;;;;;2.50;1.70;;;8.50;93.20;;;;;;5297996;26;20471;-64
2024/04/24 10:03:22;;;;;;;1.83;1.73;;;8.70;93.10;;;;;;5306231;26;20510;-66
2024/04/24 10:05:50;;;;;;;1.57;1.20;;;8.90;93.50;;;;;;5306147;26;20451;-64
2024/04/24 10:08:22;;;;;;;1.60;1.50;;;9.20;91.90;;;;;;5306683;26;21139;-63
2024/04/24 10:10:51;;;;;;;1.33;1.00;;;9.10;90.50;;;;;;5306623;26;20921;-67
2024/04/24 10:13:18;;;;;;;1.40;1.30;;;9.20;90.30;;;;;;5306181;26;20511;-65
2024/04/24 10:15:45;;;;;;;1.30;1.20;;;9.30;90.90;;;;;;5276027;27;20524;-65
2024/04/24 10:18:11;;;;;;;1.10;1.00;;;9.30;89.90;;;;;;5281427;26;20938;-64
2024/04/24 10:20:40;;;;;;;2.17;2.00;;;9.10;87.50;;;;;;5311216;26;20535;-65
2024/04/24 10:23:07;;;;;;;1.30;1.20;;;8.90;87.20;;;;;;5306023;26;20282;-65
2024/04/24 10:25:34;;;;;;;1.00;0.90;;;8.80;87.90;;;;;;5305752;26;20471;-68
2024/04/24 10:28:02;;;;;;;2.97;1.30;;;8.70;88.70;;;;;;5306392;26;21302;-66
2024/04/24 10:30:30;;;;;;;0.97;0.90;;;8.60;89.10;;;;;;5305686;26;21070;-64
2024/04/24 10:32:55;;;;;;;1.40;1.30;;;8.60;89.10;;;;;;5276196;27;20520;-63
2024/04/24 10:35:24;;;;;;;1.77;1.63;;;8.70;88.90;;;;;;5275320;26;20466;-65
2024/04/24 10:37:55;;;;;;;1.10;1.00;;;8.90;88.60;;;;;;5305728;26;20571;-64
2024/04/24 10:40:26;;;;;;;1.20;1.10;;;9.00;88.80;;;;;;5307724;26;20597;-64
2024/04/24 10:42:52;;;;;;;3.90;1.47;;;9.10;88.20;;;;;;5308008;26;20575;-63
2024/04/24 10:45:17;;;;;;;4.60;2.73;;;9.30;88.70;;;;;;5307518;26;20519;-63
2024/04/24 10:47:43;;;;;;;1.07;1.00;;;9.20;87.10;;;;;;5276991;27;20467;-65
2024/04/24 10:50:15;;;;;;;0.90;0.80;;;9.10;86.90;;;;;;5306516;26;20774;-64
2024/04/24 10:53:02;;;;;;;1.23;0.80;;;9.30;86.90;;;;;;5311955;26;20223;-65
2024/04/24 10:55:27;;;;;;;1.40;1.37;;;9.50;84.80;;;;;;5274560;26;20553;-64
2024/04/24 10:57:53;;;;;;;1.00;0.90;;;9.70;83.70;;;;;;5321621;26;20474;-64
2024/04/24 11:00:21;;;;;;;1.17;1.07;;;9.80;81.50;;;;;;5303707;26;20516;-64
2024/04/24 11:02:48;;;;;;;1.20;1.10;;;10.10;81.70;;;;;;5329524;26;20471;-64
2024/04/24 11:05:16;;;;;;;1.17;1.07;;;10.30;81.30;;;;;;5274549;26;20459;-65
2024/04/24 11:07:42;;;;;;;1.27;1.17;;;10.20;81.00;;;;;;5305675;26;20517;-64
2024/04/24 11:10:08;;;;;;;4.63;2.23;;;10.20;82.00;;;;;;5305220;26;21075;-64
2024/04/24 11:12:40;;;;;;;0.90;0.80;;;10.10;81.60;;;;;;5338393;21;20316;-85
2024/04/24 11:15:07;;;;;;;1.23;1.13;;;9.90;81.70;;;;;;5321366;26;20476;-84
2024/04/24 11:17:33;;;;;;;1.60;1.10;;;9.70;82.40;;;;;;5319291;26;20914;-84
2024/04/24 11:19:58;;;;;;;1.57;1.37;;;9.50;83.80;;;;;;5343037;26;21297;-84
2024/04/24 11:22:27;;;;;;;1.80;1.67;;;9.30;84.90;;;;;;5287667;27;20327;-84
2024/04/24 11:24:55;;;;;;;1.70;1.60;;;9.10;86.60;;;;;;5286118;27;20236;-83
2024/04/24 11:27:24;;;;;;;2.70;2.47;;;8.80;85.90;;;;;;5279858;27;20479;-85
2024/04/24 11:29:52;;;;;;;1.77;1.73;;;8.70;88.80;;;;;;5285205;27;20872;-84
2024/04/24 11:32:19;;;;;;;3.90;2.20;;;8.60;91.00;;;;;;5277056;27;20909;-85
2024/04/24 11:34:45;;;;;;;3.57;3.03;;;8.60;92.00;;;;;;5285578;27;20474;-83
2024/04/24 11:37:11;;;;;;;8.87;2.30;;;8.60;92.70;;;;;;5309348;27;20785;-84
2024/04/24 11:39:36;;;;;;;3.50;3.13;;;8.60;92.80;;;;;;5285895;27;20459;-84
2024/04/24 11:42:03;;;;;;;3.40;2.10;;;8.40;92.90;;;;;;5281330;27;20718;-84
2024/04/24 11:44:28;;;;;;;1.60;1.50;;;8.30;93.20;;;;;;5285356;27;20248;-83
2024/04/24 11:46:56;;;;;;;2.20;2.00;;;8.20;93.90;;;;;;5283874;27;20575;-85
2024/04/24 11:49:23;;;;;;;2.50;1.53;;;8.20;94.40;;;;;;5310761;27;20338;-85
2024/04/24 11:51:49;;;;;;;2.83;2.30;;;8.00;94.20;;;;;;5301376;27;20471;-85
2024/04/24 11:54:15;;;;;;;9.43;3.20;;;8.00;95.60;;;;;;5280664;27;20586;-84
2024/04/24 11:56:41;;;;;;;1.23;1.20;;;8.00;96.60;;;;;;5284027;27;20466;-86
2024/04/24 11:59:09;;;;;;;1.93;1.60;;;8.00;97.30;;;;;;5306124;27;20232;-84
2024/04/24 12:01:38;;;;;;;1.73;1.50;;;8.20;97.30;;;;;;5286317;27;20537;-85
2024/04/24 12:04:05;;;;;;;2.80;1.97;;;8.30;97.30;;;;;;5310330;27;20824;-85
2024/04/24 12:06:41;;;;;;;2.10;1.53;;;8.60;97.30;;;;;;5307833;27;20961;-84
2024/04/24 12:09:10;;;;;;;8.73;3.57;;;9.00;96.80;;;;;;5276057;27;20871;-85
2024/04/24 12:11:43;;;;;;;3.40;1.00;;;9.30;94.50;;;;;;5276337;27;20604;-85
2024/04/24 12:14:16;;;;;;;1.40;1.30;;;9.70;94.60;;;;;;5275885;27;20643;-85
2024/04/24 12:16:42;;;;;;;2.43;1.40;;;10.20;95.80;;;;;;5272129;27;20475;-84
2024/04/24 12:19:08;;;;;;;5.90;3.13;;;10.40;92.90;;;;;;5276651;27;20582;-86
2024/04/24 12:21:34;;;;;;;2.30;2.10;;;10.90;93.40;;;;;;5306692;26;20243;-85
2024/04/24 12:24:00;;;;;;;1.70;1.60;;;11.30;93.10;;;;;;5280125;27;21075;-85
2024/04/24 12:26:28;;;;;;;5.80;3.23;;;11.40;91.00;;;;;;5279993;27;20824;-85
2024/04/24 12:28:53;;;;;;;2.63;2.33;;;11.20;88.80;;;;;;5294919;27;20627;-84
2024/04/24 12:31:19;;;;;;;2.80;2.20;;;11.00;88.20;;;;;;5307117;27;20506;-85
2024/04/24 12:33:45;;;;;;;2.93;2.00;;;11.00;87.90;;;;;;5277167;27;20262;-85
2024/04/24 12:36:11;;;;;;;1.37;1.27;;;11.40;91.20;;;;;;5277698;27;20271;-84
2024/04/24 12:38:36;;;;;;;1.43;1.40;;;11.50;86.90;;;;;;5275207;27;20235;-86
2024/04/24 12:41:02;;;;;;;5.17;1.70;;;11.50;86.80;;;;;;5277091;27;20530;-85
2024/04/24 12:43:27;;;;;;;3.97;2.17;;;11.40;85.60;;;;;;5276990;27;20266;-84
2024/04/24 12:45:53;;;;;;;2.73;2.17;;;11.40;88.40;;;;;;5307701;27;20243;-86
2024/04/24 12:48:18;;;;;;;1.93;1.90;;;11.40;86.40;;;;;;5279903;27;20312;-85
2024/04/24 12:50:44;;;;;;;2.27;1.87;;;11.10;85.30;;;;;;5314652;26;20227;-85
2024/04/24 12:53:09;;;;;;;3.70;2.00;;;10.80;85.80;;;;;;5296143;27;20302;-84
2024/04/24 12:55:35;;;;;;;1.83;1.73;;;10.50;86.10;;;;;;5324657;27;20310;-85
2024/04/24 12:58:00;;;;;;;2.63;2.43;;;10.40;86.80;;;;;;5295006;27;20248;-86
2024/04/24 13:00:26;;;;;;;1.90;1.43;;;10.30;86.30;;;;;;5294737;27;20262;-84
2024/04/24 13:02:51;;;;;;;1.90;1.80;;;10.40;87.60;;;;;;5323085;26;20285;-85
2024/04/24 13:05:17;;;;;;;1.50;1.50;;;11.10;88.50;;;;;;5292910;27;20236;-85
2024/04/24 13:07:42;;;;;;;1.63;1.27;;;12.10;85.20;;;;;;5292506;27;20266;-84
2024/04/24 13:10:08;;;;;;;1.50;1.40;;;12.50;83.70;;;;;;5285479;27;20243;-85
2024/04/24 13:12:35;;;;;;;3.33;1.97;;;12.40;80.30;;;;;;5290397;27;20244;-85
2024/04/24 13:15:01;;;;;;;3.63;2.00;;;12.40;81.70;;;;;;5293690;27;20319;-85
2024/04/24 13:17:27;;;;;;;4.97;2.60;;;12.00;82.30;;;;;;5315220;27;20506;-86
2024/04/24 13:19:52;;;;;;;8.90;2.70;;;12.00;83.40;;;;;;5269293;27;20508;-85
2024/04/24 13:22:18;;;;;;;2.80;2.27;;;12.10;83.10;;;;;;5282466;27;20248;-85
2024/04/24 13:24:44;;;;;;;2.07;1.93;;;12.60;83.60;;;;;;5279543;27;20733;-85
2024/04/24 13:27:10;;;;;;;4.97;3.20;;;12.90;83.40;;;;;;5308694;27;20236;-86
2024/04/24 13:29:35;;;;;;;1.80;1.70;;;12.40;81.10;;;;;;5278934;27;20564;-86
2024/04/24 13:32:01;;;;;;;3.73;1.53;;;11.80;81.30;;;;;;5281366;27;20279;-84
2024/04/24 13:34:26;;;;;;;1.40;1.30;;;11.30;81.30;;;;;;5281256;27;20240;-85
2024/04/24 13:36:52;;;;;;;1.63;1.57;;;11.00;83.10;;;;;;5308230;27;20232;-84
2024/04/24 13:39:18;;;;;;;2.07;1.93;;;11.00;83.70;;;;;;5279256;27;20247;-85
2024/04/24 13:41:43;;;;;;;2.37;1.60;;;11.00;82.20;;;;;;5294816;26;20482;-85
2024/04/24 13:44:13;;;;;;;4.30;1.50;;;11.00;81.60;;;;;;5281238;27;20354;-85
2024/04/24 13:46:45;;;;;;;5.53;1.53;;;10.80;82.10;;;;;;5280820;27;20272;-86
2024/04/24 13:49:10;;;;;;;2.30;2.10;;;10.90;83.60;;;;;;5277361;27;20470;-85
2024/04/24 13:51:37;;;;;;;1.80;1.70;;;11.60;83.30;;;;;;5252388;27;20915;-84
2024/04/24 13:54:03;;;;;;;4.07;3.03;;;12.70;81.60;;;;;;5279168;27;20514;-86
2024/04/24 13:56:29;;;;;;;1.60;1.50;;;13.20;79.80;;;;;;5280384;27;20240;-84
2024/04/24 13:58:54;;;;;;;1.93;1.67;;;12.80;78.40;;;;;;5278924;27;20532;-85
2024/04/24 14:01:20;;;;;;;2.60;1.87;;;12.10;78.80;;;;;;5279249;27;20342;-85
2024/04/24 14:03:45;;;;;;;1.00;0.90;;;11.30;80.50;;;;;;5308799;27;20239;-85
2024/04/24 14:06:11;;;;;;;1.17;1.07;;;11.00;81.90;;;;;;5279458;27;20281;-85
2024/04/24 14:08:36;;;;;;;1.10;1.00;;;11.10;81.80;;;;;;5279094;27;20259;-85
2024/04/24 14:11:02;;;;;;;1.00;0.90;;;11.10;81.20;;;;;;5311045;26;20580;-85
2024/04/24 14:13:27;;;;;;;3.53;1.70;;;10.80;80.50;;;;;;5309671;27;20224;-86
2024/04/24 14:15:53;;;;;;;6.00;1.67;;;10.70;82.90;;;;;;5309279;27;20228;-85
2024/04/24 14:18:19;;;;;;;2.50;1.67;;;10.80;84.30;;;;;;5278351;27;20262;-86
2024/04/24 14:20:44;;;;;;;1.43;1.33;;;11.00;82.80;;;;;;5278941;26;20722;-85
2024/04/24 14:23:10;;;;;;;1.37;1.30;;;11.10;80.90;;;;;;5279900;27;20467;-85
2024/04/24 14:25:35;;;;;;;1.93;1.80;;;11.60;81.60;;;;;;5278832;27;20287;-86
2024/04/24 14:28:01;;;;;;;4.40;1.93;;;12.80;82.60;;;;;;5307107;27;20232;-85
2024/04/24 14:30:26;;;;;;;1.33;1.23;;;13.90;78.80;;;;;;5309253;27;20344;-85
2024/04/24 14:32:52;;;;;;;1.43;1.33;;;14.50;74.20;;;;;;5277979;27;20310;-85
2024/04/24 14:35:17;;;;;;;2.80;1.50;;;14.70;72.50;;;;;;5308771;27;20228;-86
2024/04/24 14:37:43;;;;;;;1.80;1.70;;;14.00;72.30;;;;;;5277375;27;20232;-85
2024/04/24 14:40:09;;;;;;;3.23;1.50;;;13.70;72.70;;;;;;5278757;27;20279;-85
2024/04/24 14:42:34;;;;;;;1.20;1.07;;;13.70;74.10;;;;;;5308865;26;20240;-85
2024/04/24 14:45:00;;;;;;;1.37;1.30;;;13.10;72.50;;;;;;5279114;27;20475;-84
2024/04/24 14:47:25;;;;;;;1.30;1.20;;;12.50;75.10;;;;;;5305649;27;20303;-86
2024/04/24 14:49:51;;;;;;;1.03;0.93;;;12.70;75.60;;;;;;5283331;26;20253;-84
2024/04/24 14:52:19;;;;;;;3.47;2.10;;;12.80;75.90;;;;;;5281976;26;20340;-84
2024/04/24 14:54:45;;;;;;;3.20;1.50;;;12.20;74.20;;;;;;5283152;26;21277;-85
2024/04/24 14:57:11;;;;;;;2.47;2.10;;;11.80;75.10;;;;;;5285225;27;20475;-85
2024/04/24 14:59:37;;;;;;;1.07;0.90;;;11.50;76.00;;;;;;5280875;26;20511;-85
2024/04/24 15:02:03;;;;;;;1.43;1.40;;;11.30;76.80;;;;;;5308217;27;20459;-85
2024/04/24 15:04:28;;;;;;;2.23;1.80;;;11.80;77.70;;;;;;5308746;27;20235;-85
2024/04/24 15:07:01;;;;;;;1.93;1.20;;;12.10;78.20;;;;;;5275271;27;20315;-85
2024/04/24 15:09:27;;;;;;;1.00;0.90;;;12.20;77.40;;;;;;5277841;27;20240;-84
2024/04/24 15:11:52;;;;;;;1.00;0.90;;;11.80;76.90;;;;;;5294060;27;20879;-84
2024/04/24 15:14:18;;;;;;;1.10;1.00;;;11.50;77.20;;;;;;5308139;27;20236;-85
2024/04/24 15:16:43;;;;;;;1.13;1.10;;;11.30;78.00;;;;;;5278166;27;20262;-85
2024/04/24 15:19:09;;;;;;;0.97;0.87;;;11.60;77.80;;;;;;5276593;27;20247;-86
2024/04/24 15:21:38;;;;;;;5.13;1.30;;;11.40;77.20;;;;;;5307659;27;20236;-85
2024/04/24 15:24:04;;;;;;;1.70;1.23;;;11.10;78.60;;;;;;5278278;27;20326;-85
2024/04/24 15:26:30;;;;;;;1.00;0.90;;;10.90;79.50;;;;;;5307502;27;20768;-85
2024/04/24 15:28:56;;;;;;;1.17;1.07;;;10.60;79.30;;;;;;5306649;27;20575;-84
2024/04/24 15:31:21;;;;;;;8.73;2.80;;;10.40;79.50;;;;;;5277472;27;20478;-85
2024/04/24 15:33:47;;;;;;;1.53;1.43;;;10.40;79.60;;;;;;5277488;27;20730;-84
2024/04/24 15:36:15;;;;;;;1.40;1.30;;;10.40;80.70;;;;;;5287053;27;20608;-84
2024/04/24 15:38:41;;;;;;;1.57;1.00;;;10.40;81.20;;;;;;5305827;27;20248;-85
2024/04/24 15:41:06;;;;;;;1.20;1.10;;;10.50;81.20;;;;;;5291532;27;20898;-84
2024/04/24 15:43:32;;;;;;;1.90;1.53;;;10.90;81.50;;;;;;5300011;27;20248;-83
2024/04/24 15:45:57;;;;;;;1.37;1.20;;;11.80;79.60;;;;;;5291767;27;20240;-85
2024/04/24 15:48:23;;;;;;;2.30;1.23;;;11.70;79.30;;;;;;5289789;27;20283;-84
2024/04/24 15:50:49;;;;;;;1.07;1.07;;;11.20;80.30;;;;;;5307759;26;20248;-85
2024/04/24 15:53:14;;;;;;;1.43;1.33;;;10.70;81.70;;;;;;5307886;26;20283;-84
2024/04/24 15:55:40;;;;;;;1.37;1.30;;;10.40;83.30;;;;;;5304979;27;20235;-85
2024/04/24 15:58:07;;;;;;;1.00;0.90;;;10.10;83.80;;;;;;5284883;27;20272;-85
2024/04/24 16:00:33;;;;;;;2.37;1.40;;;10.40;84.60;;;;;;5306148;27;20236;-84
2024/04/24 16:02:59;;;;;;;1.10;1.00;;;11.50;82.30;;;;;;5280563;27;20803;-85
2024/04/24 16:05:24;;;;;;;1.40;1.30;;;12.80;81.70;;;;;;5301257;27;20717;-85
2024/04/24 16:07:50;;;;;;;1.07;0.90;;;13.80;79.10;;;;;;5280019;27;20275;-85
2024/04/24 16:10:15;;;;;;;0.90;0.80;;;14.40;76.10;;;;;;5293605;27;20239;-85
2024/04/24 16:12:41;;;;;;;1.17;1.13;;;14.80;75.60;;;;;;5309434;26;20275;-85
2024/04/24 16:15:07;;;;;;;1.00;0.90;;;15.00;72.90;;;;;;5304208;27;20248;-85
2024/04/24 16:17:32;;;;;;;1.10;1.00;;;14.90;72.80;;;;;;5292732;27;20244;-85
2024/04/24 16:19:58;;;;;;;0.90;0.80;;;15.10;72.30;;;;;;5310629;27;20232;-84
2024/04/24 16:22:24;;;;;;;1.20;1.10;;;15.40;72.10;;;;;;5287093;27;20316;-85
2024/04/24 16:24:49;;;;;;;1.77;0.97;;;15.70;71.70;;;;;;5310399;27;20231;-85
2024/04/24 16:27:15;;;;;;;3.33;1.60;;;15.70;70.80;;;;;;5308756;27;20231;-85
2024/04/24 16:29:43;;;;;;;3.63;1.63;;;15.60;71.10;;;;;;5310572;27;20344;-85
2024/04/24 16:32:08;;;;;;;1.47;1.17;;;15.60;71.00;;;;;;5290545;27;20311;-85
2024/04/24 16:34:34;;;;;;;0.90;0.80;;;15.90;70.60;;;;;;5293909;27;20515;-84
2024/04/24 16:36:59;;;;;;;0.90;0.90;;;16.20;70.80;;;;;;5307725;27;20346;-85
2024/04/24 16:39:28;;;;;;;1.27;1.17;;;16.50;69.80;;;;;;5279041;27;20232;-86
2024/04/24 16:41:53;;;;;;;0.90;0.80;;;16.60;67.60;;;;;;5306048;26;20722;-86
2024/04/24 16:44:19;;;;;;;0.77;0.73;;;16.20;65.50;;;;;;5279426;27;20539;-84
2024/04/24 16:46:44;;;;;;;0.87;0.80;;;15.90;66.00;;;;;;5290280;27;20312;-85
2024/04/24 16:49:10;;;;;;;1.00;0.90;;;15.80;67.00;;;;;;5281347;27;20281;-84
2024/04/24 16:51:37;;;;;;;11.13;1.40;;;15.90;67.10;;;;;;5282758;27;20259;-85